Apalachin, New York
Current Conditions -  °F | °C
As of 7:53 PM on Thursday 27 Nov 2014 (Local Time) from KBGM Reporting Station
Clear Clear  
Wind Chill: 23°   Ceiling: Unl
Heat Index: 23°   Visibility: 10mi
Dew Point: 21°   Wind: 3mph
Humidity: 92%   Direction: 280°W
Pressure: 30"   Gusts: NA
Location:  42.07°N, 76.15°W
Report Text: KBGM 280053Z 28003KT 10SM CLR M05/M06 A3000 RMK AO2 SLP178 T10501061 $
Loading
Personal Weather Stations






























Interactive Weather Map New forecast layout! Learn more

10-Day Weather Forecast

Advertisements
Track Severe Weather on mobile